Terminal Aerodrome Forecast
Issued by NWS Kansas City/Pleasant Hill, MO

Home | Current Version | Previous Version | Text Only | Print | Product List | Glossary On
Versions: 1 2 3 4 5 6 7 8 9 10 11 12 13 14 15 16 17
000
FTUS43 KEAX 131138
TAFMCI
TAF
KMCI 131138Z 1312/1412 06009KT P6SM FEW100 BKN250
     FM131900 07009KT P6SM -FZDZ OVC020
     FM140100 08006KT P6SM VCSH OVC015
     FM140600 VRB04KT P6SM OVC010=

USA.gov is the U.S. government's official web portal to all federal, state and local government web resources and services.